Time;durP1;ratioP1;P1;durP2;ratioP2;P2;SDS_P1;SDS_P2;PMS_P1;PMS_P2;Temp;Humidity;BMP_temperature;BMP_pressure;BME280_temperature;BME280_humidity;BME280_pressure;Samples;Min_cycle;Max_cycle;Signal;HPM_P1;HPM_P2
2022/12/24 00:03:55;;;;;;;1.57;0.90;;;14.80;52.40;;;;;;10458088;28;20221;-68
2022/12/24 00:08:58;;;;;;;1.33;0.93;;;14.70;52.20;;;;;;10462060;28;20233;-68
2022/12/24 00:14:01;;;;;;;0.80;0.80;;;14.70;52.30;;;;;;10456342;28;20221;-71
2022/12/24 00:19:06;;;;;;;1.07;0.90;;;14.70;52.30;;;;;;10464809;28;20790;-71
2022/12/24 00:24:09;;;;;;;0.80;0.80;;;14.70;52.40;;;;;;10458303;28;20235;-71
2022/12/24 00:29:12;;;;;;;0.80;0.60;;;14.70;52.40;;;;;;10458646;28;20225;-69
2022/12/24 00:34:17;;;;;;;0.70;0.70;;;14.60;52.30;;;;;;10460236;28;20623;-69
2022/12/24 00:39:20;;;;;;;0.80;0.80;;;14.60;52.30;;;;;;10460271;28;20221;-69
2022/12/24 00:44:23;;;;;;;0.70;0.70;;;14.70;52.30;;;;;;10463213;28;20234;-69
2022/12/24 00:49:27;;;;;;;0.80;0.80;;;14.60;52.10;;;;;;10460036;28;20231;-69
2022/12/24 00:54:31;;;;;;;0.90;0.90;;;14.70;52.30;;;;;;10458889;28;20240;-70
2022/12/24 00:59:34;;;;;;;1.07;0.80;;;14.70;52.20;;;;;;10459169;28;20216;-69
2022/12/24 01:09:56;;;;;;;0.97;0.80;;;14.70;51.90;;;;;;10446991;28;20221;-69
2022/12/24 01:14:59;;;;;;;0.87;0.83;;;14.70;51.80;;;;;;10457867;28;20239;-70
2022/12/24 01:20:06;;;;;;;0.80;0.80;;;14.70;51.80;;;;;;10455430;28;20674;-70
2022/12/24 01:25:10;;;;;;;0.70;0.70;;;14.60;51.70;;;;;;10456637;28;21035;-69
2022/12/24 01:30:14;;;;;;;0.77;0.77;;;14.60;51.70;;;;;;10454533;28;20350;-68
2022/12/24 01:35:19;;;;;;;1.30;0.80;;;14.60;51.70;;;;;;10459579;28;20224;-68
2022/12/24 01:45:51;;;;;;;0.80;0.80;;;14.60;51.60;;;;;;10464229;28;20294;-68
2022/12/24 01:51:00;;;;;;;0.70;0.70;;;14.50;51.30;;;;;;10466506;28;20220;-69
2022/12/24 01:56:05;;;;;;;3.20;0.77;;;14.50;51.30;;;;;;10465775;28;20224;-69
2022/12/24 02:01:09;;;;;;;1.00;0.73;;;14.40;51.20;;;;;;10462592;28;20221;-69
2022/12/24 02:06:16;;;;;;;0.90;0.80;;;14.40;50.80;;;;;;10466476;28;20236;-69
2022/12/24 02:11:21;;;;;;;1.90;1.00;;;14.30;50.70;;;;;;10468146;28;20235;-69
2022/12/24 02:16:35;;;;;;;1.00;0.80;;;14.20;50.50;;;;;;10464048;28;20235;-68
2022/12/24 02:21:50;;;;;;;1.63;1.03;;;14.20;50.40;;;;;;10466457;28;20256;-69
2022/12/24 02:27:12;;;;;;;2.17;0.90;;;14.10;50.00;;;;;;10466197;28;20229;-68
2022/12/24 02:32:23;;;;;;;1.03;0.80;;;14.10;50.10;;;;;;10463017;28;20845;-69
2022/12/24 02:37:31;;;;;;;1.73;0.90;;;14.10;50.20;;;;;;10461034;28;20676;-69
2022/12/24 02:42:41;;;;;;;2.70;1.00;;;14.10;50.50;;;;;;10466565;28;20225;-71
2022/12/24 02:47:46;;;;;;;0.80;0.80;;;14.10;50.80;;;;;;10459648;28;20609;-71
2022/12/24 02:52:50;;;;;;;1.70;1.03;;;14.10;50.90;;;;;;10464641;28;20236;-71
2022/12/24 02:58:13;;;;;;;1.63;1.00;;;14.10;50.70;;;;;;10457694;28;20228;-71
2022/12/24 03:03:33;;;;;;;2.73;1.10;;;14.20;50.60;;;;;;10465841;28;20240;-71
2022/12/24 03:08:47;;;;;;;1.73;0.90;;;14.10;50.30;;;;;;10461829;28;20235;-71
2022/12/24 03:13:52;;;;;;;2.60;1.30;;;14.10;50.30;;;;;;10459662;28;20240;-71
2022/12/24 03:18:59;;;;;;;1.70;1.00;;;14.00;50.10;;;;;;10464086;28;20228;-71
2022/12/24 03:24:02;;;;;;;1.27;1.00;;;14.00;50.20;;;;;;10464391;28;20225;-71
2022/12/24 03:29:07;;;;;;;2.43;1.10;;;14.00;50.40;;;;;;10458102;28;20233;-71
2022/12/24 03:34:13;;;;;;;2.40;1.10;;;14.00;50.40;;;;;;10459870;28;20307;-71
2022/12/24 03:39:17;;;;;;;1.97;1.00;;;14.00;50.30;;;;;;10460032;28;20228;-72
2022/12/24 03:44:20;;;;;;;1.93;1.00;;;13.90;50.00;;;;;;10460556;28;20229;-72
2022/12/24 03:49:24;;;;;;;1.43;0.90;;;13.80;49.30;;;;;;10464667;28;20251;-73
2022/12/24 03:54:27;;;;;;;1.33;1.00;;;13.60;49.50;;;;;;10462179;28;20233;-72
2022/12/24 03:59:31;;;;;;;0.87;0.70;;;13.40;49.60;;;;;;10465257;28;20232;-72
2022/12/24 04:04:36;;;;;;;1.40;0.93;;;13.20;49.80;;;;;;10457962;28;20227;-72
2022/12/24 04:09:39;;;;;;;1.07;0.83;;;13.10;50.30;;;;;;10455417;28;20217;-72
2022/12/24 04:14:43;;;;;;;1.57;0.80;;;13.00;50.70;;;;;;10459986;28;20228;-73
2022/12/24 04:19:47;;;;;;;1.00;0.90;;;12.90;50.70;;;;;;10458317;28;20759;-73
2022/12/24 04:24:50;;;;;;;1.63;0.90;;;12.90;51.00;;;;;;10460189;28;20234;-72
2022/12/24 04:29:53;;;;;;;2.07;1.10;;;12.90;50.90;;;;;;10454548;28;20224;-72
2022/12/24 04:34:58;;;;;;;1.10;1.00;;;13.00;51.00;;;;;;10458521;28;20228;-73
2022/12/24 04:40:01;;;;;;;2.53;1.23;;;13.00;51.00;;;;;;10458197;28;20594;-72
2022/12/24 04:45:05;;;;;;;3.13;1.37;;;13.00;51.00;;;;;;10458159;28;20222;-72
2022/12/24 04:50:11;;;;;;;4.10;1.47;;;13.00;50.80;;;;;;10460186;28;20262;-72
2022/12/24 04:55:14;;;;;;;3.57;1.30;;;13.00;50.50;;;;;;10458239;28;20233;-72
2022/12/24 05:00:17;;;;;;;2.53;1.23;;;13.10;50.90;;;;;;10458437;28;20225;-72
2022/12/24 05:05:22;;;;;;;3.47;1.30;;;13.10;50.60;;;;;;10457577;28;20300;-72
2022/12/24 05:10:25;;;;;;;4.20;1.50;;;13.10;50.50;;;;;;10460674;28;20224;-72
2022/12/24 05:15:28;;;;;;;2.97;1.27;;;13.10;50.50;;;;;;10467352;28;20228;-72
2022/12/24 05:20:33;;;;;;;2.57;1.50;;;13.10;50.60;;;;;;10463836;28;20776;-72
2022/12/24 05:30:59;;;;;;;3.40;1.30;;;13.10;50.00;;;;;;10471631;28;20227;-73
2022/12/24 05:36:04;;;;;;;3.47;1.33;;;13.10;50.20;;;;;;10469525;28;20596;-74
2022/12/24 05:41:09;;;;;;;4.90;1.50;;;13.10;50.10;;;;;;10464546;28;20221;-72
2022/12/24 05:46:14;;;;;;;3.97;1.50;;;13.10;50.10;;;;;;10476844;28;20244;-72
2022/12/24 05:51:21;;;;;;;2.93;1.40;;;13.10;49.90;;;;;;10475155;28;20213;-72
2022/12/24 05:56:25;;;;;;;3.10;1.30;;;13.10;49.90;;;;;;10472773;28;20252;-75
2022/12/24 06:01:28;;;;;;;4.27;1.33;;;13.20;49.90;;;;;;10479024;28;20676;-72
2022/12/24 06:06:33;;;;;;;3.47;1.33;;;13.10;49.90;;;;;;10479935;28;20232;-73
2022/12/24 06:11:36;;;;;;;3.83;1.60;;;13.10;49.70;;;;;;10471299;28;20243;-73
2022/12/24 06:16:39;;;;;;;5.87;1.40;;;13.10;50.00;;;;;;10480885;28;20251;-72
2022/12/24 06:21:44;;;;;;;2.57;1.40;;;13.10;49.90;;;;;;10488574;28;20713;-72
2022/12/24 06:26:47;;;;;;;2.30;1.10;;;13.10;49.70;;;;;;10472684;28;20220;-72
2022/12/24 06:31:50;;;;;;;2.53;1.40;;;13.00;49.80;;;;;;10473826;28;20251;-68
2022/12/24 06:36:55;;;;;;;3.17;1.77;;;13.00;49.90;;;;;;10482424;28;20221;-69
2022/12/24 06:41:58;;;;;;;5.23;1.67;;;13.00;49.90;;;;;;10474084;28;20227;-68
2022/12/24 06:47:01;;;;;;;3.40;1.60;;;12.90;50.00;;;;;;10470605;28;20231;-73
2022/12/24 06:52:06;;;;;;;3.33;1.40;;;13.00;50.10;;;;;;10474213;28;20226;-72
2022/12/24 06:57:09;;;;;;;4.93;2.00;;;13.00;49.80;;;;;;10475399;28;20228;-72
2022/12/24 07:02:12;;;;;;;4.23;2.20;;;13.00;49.90;;;;;;10471888;28;20228;-72
2022/12/24 07:07:17;;;;;;;4.23;1.93;;;12.90;49.80;;;;;;10467272;28;20220;-72
2022/12/24 07:12:20;;;;;;;3.37;1.43;;;12.90;49.60;;;;;;10466811;28;20229;-72
2022/12/24 07:17:23;;;;;;;3.40;1.70;;;12.90;49.80;;;;;;10472018;28;20228;-72
2022/12/24 07:22:28;;;;;;;3.83;2.20;;;12.90;50.00;;;;;;10467906;28;20232;-73
2022/12/24 07:27:31;;;;;;;3.30;1.90;;;12.90;49.80;;;;;;10472348;28;20233;-73
2022/12/24 07:32:35;;;;;;;3.80;2.17;;;12.90;49.80;;;;;;10469071;28;20212;-73
2022/12/24 07:37:39;;;;;;;4.77;1.93;;;12.90;49.80;;;;;;10474858;28;20230;-73
2022/12/24 07:42:42;;;;;;;2.40;1.50;;;13.00;49.70;;;;;;10479269;28;20229;-73
2022/12/24 07:47:45;;;;;;;6.50;2.57;;;13.00;49.50;;;;;;10477633;28;21005;-73
2022/12/24 07:52:50;;;;;;;4.37;1.70;;;13.00;49.70;;;;;;10484911;28;20226;-73
2022/12/24 07:57:53;;;;;;;4.70;3.17;;;13.00;49.70;;;;;;10470519;28;20604;-73
2022/12/24 08:02:58;;;;;;;3.93;2.70;;;12.90;49.70;;;;;;10471953;28;20224;-73
2022/12/24 08:08:03;;;;;;;3.40;1.90;;;12.90;49.60;;;;;;10473267;28;20227;-72
2022/12/24 08:13:07;;;;;;;4.40;1.97;;;12.90;49.80;;;;;;10489429;28;20223;-73
2022/12/24 08:18:10;;;;;;;5.73;2.00;;;12.80;50.00;;;;;;10468984;28;20228;-73
2022/12/24 08:23:15;;;;;;;4.10;2.23;;;12.80;50.20;;;;;;10469581;28;20231;-74
2022/12/24 08:28:20;;;;;;;5.27;3.70;;;12.80;50.20;;;;;;10473792;28;20229;-74
2022/12/24 08:33:23;;;;;;;7.50;3.60;;;12.80;50.40;;;;;;10468292;28;20304;-72
2022/12/24 08:38:31;;;;;;;4.77;2.87;;;12.80;50.50;;;;;;10470284;28;20224;-75
2022/12/24 08:43:34;;;;;;;3.40;2.00;;;12.80;50.60;;;;;;10477046;28;20234;-78
2022/12/24 08:48:38;;;;;;;3.53;1.87;;;12.80;50.80;;;;;;10476034;28;20724;-73
2022/12/24 08:53:42;;;;;;;6.70;2.20;;;12.70;51.20;;;;;;10468818;28;20281;-73
2022/12/24 08:58:47;;;;;;;3.27;1.97;;;12.80;51.30;;;;;;10470575;28;20232;-74
2022/12/24 09:03:50;;;;;;;3.33;1.80;;;12.70;51.20;;;;;;10471494;28;20677;-76
2022/12/24 09:08:55;;;;;;;2.70;2.00;;;12.80;51.90;;;;;;10492771;28;20282;-75
2022/12/24 09:13:58;;;;;;;2.50;1.87;;;12.80;51.00;;;;;;10479982;28;20366;-74
2022/12/24 09:19:01;;;;;;;3.13;1.90;;;12.80;51.00;;;;;;10477201;28;20642;-76
2022/12/24 09:24:06;;;;;;;3.37;1.80;;;12.90;51.10;;;;;;10470598;28;20365;-74
2022/12/24 09:29:11;;;;;;;2.27;1.77;;;12.90;51.00;;;;;;10466934;28;20265;-72
2022/12/24 09:34:14;;;;;;;7.80;1.70;;;13.00;51.20;;;;;;10468471;28;20228;-73
2022/12/24 09:39:18;;;;;;;4.73;2.00;;;13.00;51.40;;;;;;10467628;28;20235;-76
2022/12/24 09:44:34;;;;;;;3.17;1.83;;;13.10;51.10;;;;;;10469536;28;20341;-76
2022/12/24 09:49:39;;;;;;;6.20;2.40;;;13.20;50.50;;;;;;10481573;28;20703;-76
2022/12/24 09:54:49;;;;;;;4.80;2.60;;;13.20;50.70;;;;;;10489061;28;20692;-76
2022/12/24 09:59:53;;;;;;;4.67;1.90;;;13.30;50.30;;;;;;10484836;28;20228;-76
2022/12/24 10:04:56;;;;;;;2.67;1.70;;;13.40;50.70;;;;;;10501928;28;20235;-77
2022/12/24 10:10:09;;;;;;;3.20;2.10;;;13.40;50.40;;;;;;10494427;28;20224;-77
2022/12/24 10:15:20;;;;;;;7.17;2.00;;;13.40;50.10;;;;;;10481430;28;20623;-77
2022/12/24 10:20:34;;;;;;;2.97;2.10;;;13.50;50.00;;;;;;10473264;28;20236;-77
2022/12/24 10:25:46;;;;;;;3.50;1.90;;;13.50;49.80;;;;;;10497683;28;20289;-77
2022/12/24 10:30:54;;;;;;;3.43;2.00;;;13.60;49.90;;;;;;10482441;28;21001;-77
2022/12/24 10:35:59;;;;;;;4.47;2.17;;;13.70;50.50;;;;;;10494401;28;20584;-77
2022/12/24 10:41:03;;;;;;;5.33;1.87;;;13.90;50.30;;;;;;10494448;28;20220;-75
2022/12/24 10:46:13;;;;;;;3.03;1.80;;;14.00;50.40;;;;;;10489310;28;20227;-77
2022/12/24 10:51:22;;;;;;;5.73;2.63;;;14.10;50.30;;;;;;10493774;28;20226;-76
2022/12/24 10:56:26;;;;;;;3.70;2.30;;;14.30;50.20;;;;;;10501075;28;20236;-77
2022/12/24 11:01:44;;;;;;;5.97;2.13;;;14.40;49.80;;;;;;10478919;28;20727;-77
2022/12/24 11:06:59;;;;;;;1.67;1.43;;;14.50;49.30;;;;;;10487600;28;20730;-77
2022/12/24 11:12:06;;;;;;;3.73;1.80;;;14.60;49.20;;;;;;10493144;28;20251;-76
2022/12/24 11:17:20;;;;;;;3.17;1.40;;;14.70;49.00;;;;;;10487184;28;20241;-77
2022/12/24 11:22:26;;;;;;;4.67;1.43;;;14.80;48.20;;;;;;10486289;28;20228;-77
2022/12/24 11:27:40;;;;;;;2.77;1.70;;;14.90;48.40;;;;;;10484817;28;20606;-77
2022/12/24 11:32:44;;;;;;;3.00;1.43;;;14.90;47.70;;;;;;10483006;28;20232;-77
2022/12/24 11:37:48;;;;;;;3.10;1.40;;;14.90;48.70;;;;;;10492243;28;20232;-76
2022/12/24 11:42:59;;;;;;;2.37;1.40;;;15.00;48.50;;;;;;10480896;28;20326;-77
2022/12/24 11:48:02;;;;;;;3.30;1.47;;;15.00;47.20;;;;;;10482039;28;20689;-75
2022/12/24 11:53:12;;;;;;;3.27;1.50;;;15.00;47.60;;;;;;10488207;28;20229;-76
2022/12/24 11:58:23;;;;;;;4.33;1.50;;;15.00;47.00;;;;;;10489815;28;20233;-77
2022/12/24 12:03:32;;;;;;;2.27;1.20;;;14.90;46.60;;;;;;10474423;28;20242;-77
2022/12/24 12:08:37;;;;;;;2.83;1.67;;;15.00;46.90;;;;;;10490246;28;20219;-77
2022/12/24 12:13:45;;;;;;;4.37;1.37;;;15.00;47.70;;;;;;10482278;28;20315;-77
2022/12/24 12:18:54;;;;;;;4.00;1.60;;;15.10;46.80;;;;;;10489490;28;20306;-76
2022/12/24 12:24:03;;;;;;;2.83;1.53;;;15.20;47.10;;;;;;10490733;28;20231;-77
2022/12/24 12:29:25;;;;;;;2.80;1.43;;;15.20;46.90;;;;;;10488132;28;20228;-76
2022/12/24 12:34:32;;;;;;;2.80;1.23;;;15.30;46.10;;;;;;10490679;28;20243;-76
2022/12/24 12:39:36;;;;;;;4.10;1.57;;;15.30;46.30;;;;;;10481350;28;20225;-77
2022/12/24 12:44:54;;;;;;;4.00;1.47;;;15.30;46.50;;;;;;10484404;28;20248;-77
2022/12/24 12:50:08;;;;;;;3.33;1.40;;;15.20;45.30;;;;;;10487174;28;20828;-77
2022/12/24 12:55:27;;;;;;;3.00;1.60;;;15.20;45.80;;;;;;10500145;28;20897;-77
2022/12/24 13:00:36;;;;;;;3.37;1.60;;;15.20;44.50;;;;;;10478915;28;20238;-77
2022/12/24 13:06:03;;;;;;;3.07;1.40;;;15.20;45.70;;;;;;10491839;28;20261;-77
2022/12/24 13:11:23;;;;;;;3.37;1.30;;;15.20;46.10;;;;;;10482599;28;20217;-76
2022/12/24 13:16:54;;;;;;;3.23;1.33;;;15.20;44.80;;;;;;10474879;28;20236;-77
2022/12/24 13:21:58;;;;;;;3.80;1.70;;;15.10;44.90;;;;;;10484246;28;20236;-77
2022/12/24 13:27:06;;;;;;;2.10;1.20;;;15.10;46.10;;;;;;10485515;28;20225;-77
2022/12/24 13:32:55;;;;;;;3.17;1.43;;;15.10;44.60;;;;;;10486382;28;20222;-76
2022/12/24 13:38:32;;;;;;;3.33;1.40;;;15.00;44.60;;;;;;10436262;28;20255;-77
2022/12/24 13:44:03;;;;;;;4.03;1.30;;;14.90;44.30;;;;;;10488380;28;20229;-77
2022/12/24 13:49:12;;;;;;;2.77;1.40;;;14.80;44.20;;;;;;10483063;28;20221;-76
2022/12/24 13:54:24;;;;;;;3.00;1.30;;;14.70;44.10;;;;;;10477378;28;20757;-76
2022/12/24 13:59:36;;;;;;;2.90;1.47;;;14.60;44.60;;;;;;10482639;28;20322;-77
2022/12/24 14:04:41;;;;;;;4.43;1.60;;;14.50;44.30;;;;;;10486315;28;20758;-77
2022/12/24 14:09:49;;;;;;;4.03;2.50;;;14.50;45.60;;;;;;10491635;28;20224;-76
2022/12/24 14:14:53;;;;;;;4.00;1.63;;;14.40;45.10;;;;;;10480504;28;20232;-77
2022/12/24 14:19:58;;;;;;;2.20;1.50;;;14.40;45.50;;;;;;10494661;28;20225;-70
2022/12/24 14:25:04;;;;;;;3.03;1.57;;;14.40;45.50;;;;;;10477964;28;20260;-70
2022/12/24 14:30:18;;;;;;;2.93;2.00;;;14.30;45.50;;;;;;10475089;28;20289;-69
2022/12/24 14:35:26;;;;;;;6.57;4.80;;;14.30;45.00;;;;;;10471615;28;21876;-68
2022/12/24 14:40:31;;;;;;;3.33;2.30;;;14.20;45.20;;;;;;10475775;28;20225;-68
2022/12/24 14:45:42;;;;;;;2.50;1.80;;;14.20;45.60;;;;;;10467230;28;20221;-68
2022/12/24 14:50:57;;;;;;;1.70;1.53;;;14.10;45.00;;;;;;10471017;28;20280;-68
2022/12/24 14:56:10;;;;;;;4.17;2.70;;;14.10;44.90;;;;;;10475554;28;20216;-68
2022/12/24 15:01:24;;;;;;;3.53;2.30;;;14.10;44.90;;;;;;10468844;28;20843;-68
2022/12/24 15:06:28;;;;;;;3.97;1.90;;;13.90;44.70;;;;;;10470065;28;20228;-68
2022/12/24 15:11:32;;;;;;;3.13;1.80;;;13.80;45.50;;;;;;10469623;28;20221;-68
2022/12/24 15:16:36;;;;;;;5.93;3.63;;;13.80;45.90;;;;;;10473140;28;20235;-68
2022/12/24 15:21:42;;;;;;;3.80;3.00;;;13.70;45.60;;;;;;10473032;28;20229;-71
2022/12/24 15:26:46;;;;;;;4.67;2.10;;;13.70;45.50;;;;;;10468337;28;20228;-71
2022/12/24 15:31:55;;;;;;;3.73;1.60;;;13.70;45.80;;;;;;10476460;28;20259;-71
2022/12/24 15:37:04;;;;;;;2.87;1.60;;;13.70;45.20;;;;;;10471820;28;20228;-71
2022/12/24 15:42:17;;;;;;;5.30;1.77;;;13.70;45.30;;;;;;10470210;28;20231;-70
2022/12/24 15:47:27;;;;;;;2.07;1.30;;;13.70;45.60;;;;;;10467475;28;20602;-70
2022/12/24 15:52:30;;;;;;;2.80;1.53;;;13.60;45.30;;;;;;10474099;28;20223;-68
2022/12/24 15:57:34;;;;;;;2.47;1.80;;;13.60;45.60;;;;;;10472133;28;20235;-68
2022/12/24 16:02:42;;;;;;;5.33;2.20;;;13.60;45.70;;;;;;10471051;28;20231;-68
2022/12/24 16:08:09;;;;;;;2.83;2.20;;;13.60;45.30;;;;;;10470689;28;20244;-68
2022/12/24 16:13:16;;;;;;;3.13;1.87;;;13.50;45.20;;;;;;10470289;28;20216;-68
2022/12/24 16:18:24;;;;;;;3.03;1.80;;;13.50;45.40;;;;;;10468330;28;20242;-68
2022/12/24 16:23:33;;;;;;;4.20;2.70;;;13.50;45.20;;;;;;10466993;28;20235;-68
2022/12/24 16:28:36;;;;;;;5.40;3.00;;;13.50;45.50;;;;;;10469418;28;21045;-68
2022/12/24 16:33:43;;;;;;;4.97;3.63;;;13.40;45.80;;;;;;10475193;28;20236;-69
2022/12/24 16:44:06;;;;;;;3.87;2.10;;;13.30;45.80;;;;;;10468204;28;20592;-68
2022/12/24 16:49:16;;;;;;;2.50;1.70;;;13.30;45.90;;;;;;10467315;28;20236;-68
2022/12/24 16:54:19;;;;;;;2.90;2.10;;;13.30;45.40;;;;;;10468152;28;20720;-68
2022/12/24 16:59:24;;;;;;;3.00;1.57;;;13.30;45.80;;;;;;10467980;28;20244;-68
2022/12/24 17:04:31;;;;;;;2.50;1.80;;;13.30;45.50;;;;;;10473833;28;20234;-68
2022/12/24 17:09:34;;;;;;;2.70;1.90;;;13.30;45.20;;;;;;10478964;28;20230;-68
2022/12/24 17:14:38;;;;;;;3.33;2.50;;;13.30;45.60;;;;;;10480594;28;20322;-68
2022/12/24 17:19:43;;;;;;;5.03;2.93;;;13.20;45.30;;;;;;10473297;28;20228;-68
2022/12/24 17:24:46;;;;;;;6.10;3.30;;;13.20;45.20;;;;;;10476753;28;20220;-68
2022/12/24 17:29:49;;;;;;;6.30;3.67;;;13.20;45.40;;;;;;10476074;28;20235;-68
2022/12/24 17:34:54;;;;;;;4.77;2.97;;;13.10;45.40;;;;;;10472329;28;20228;-68
2022/12/24 17:39:57;;;;;;;2.60;2.17;;;13.10;45.20;;;;;;10480597;28;20570;-68
2022/12/24 17:45:00;;;;;;;8.57;6.90;;;13.10;45.30;;;;;;10471074;28;20286;-68
2022/12/24 17:50:07;;;;;;;29.17;16.87;;;13.10;45.40;;;;;;10482256;28;20244;-68
2022/12/24 17:55:10;;;;;;;22.13;14.13;;;13.00;45.30;;;;;;10474682;28;20231;-68
2022/12/24 18:00:15;;;;;;;56.77;39.33;;;12.90;45.40;;;;;;10471565;28;20233;-68
2022/12/24 18:05:20;;;;;;;20.80;14.30;;;12.90;45.40;;;;;;10475007;28;20232;-68
2022/12/24 18:10:23;;;;;;;26.67;23.93;;;12.90;45.50;;;;;;10472385;28;20224;-68
2022/12/24 18:15:26;;;;;;;12.30;9.70;;;12.90;45.70;;;;;;10476055;28;20587;-68
2022/12/24 18:20:33;;;;;;;7.53;5.30;;;12.90;45.60;;;;;;10469455;28;20234;-68
2022/12/24 18:25:36;;;;;;;5.60;4.97;;;12.90;45.20;;;;;;10472751;28;20223;-68
2022/12/24 18:30:39;;;;;;;7.50;5.40;;;12.90;45.50;;;;;;10474905;28;20834;-68
2022/12/24 18:35:44;;;;;;;9.20;7.00;;;13.00;45.60;;;;;;10473839;28;20239;-68
2022/12/24 18:40:47;;;;;;;15.27;9.30;;;13.00;45.20;;;;;;10473831;28;20220;-68
2022/12/24 18:45:50;;;;;;;6.10;5.10;;;13.00;45.20;;;;;;10470982;28;20228;-68
2022/12/24 18:50:58;;;;;;;34.77;25.13;;;13.00;45.30;;;;;;10475530;28;20221;-68
2022/12/24 18:56:06;;;;;;;13.27;9.33;;;12.90;44.70;;;;;;10473694;28;20235;-68
2022/12/24 19:01:12;;;;;;;7.07;4.50;;;12.90;44.70;;;;;;10474382;28;20219;-68
2022/12/24 19:06:17;;;;;;;5.70;3.70;;;12.90;45.00;;;;;;10472657;28;20225;-68
2022/12/24 19:11:21;;;;;;;4.63;3.17;;;12.90;44.90;;;;;;10472578;28;20605;-68
2022/12/24 19:16:24;;;;;;;4.70;2.73;;;12.90;45.10;;;;;;10474126;28;20731;-68
2022/12/24 19:21:28;;;;;;;3.50;3.20;;;12.90;45.00;;;;;;10472381;28;20224;-68
2022/12/24 19:26:32;;;;;;;4.33;2.97;;;12.80;44.80;;;;;;10474141;28;20228;-68
2022/12/24 19:31:35;;;;;;;3.87;3.03;;;12.90;45.10;;;;;;10472429;28;20216;-68
2022/12/24 19:36:39;;;;;;;4.83;3.47;;;12.90;45.10;;;;;;10469051;28;20278;-68
2022/12/24 19:41:43;;;;;;;4.83;3.80;;;12.90;44.90;;;;;;10467418;28;20251;-68
2022/12/24 19:46:47;;;;;;;4.03;3.63;;;12.90;45.00;;;;;;10466917;28;20224;-68
2022/12/24 19:51:53;;;;;;;5.53;3.43;;;12.90;45.00;;;;;;10472676;28;20230;-68
2022/12/24 19:56:56;;;;;;;7.43;6.17;;;12.90;44.60;;;;;;10469089;28;20224;-68
2022/12/24 20:01:59;;;;;;;7.30;5.07;;;12.90;44.70;;;;;;10473790;28;20231;-68
2022/12/24 20:07:04;;;;;;;6.60;5.40;;;12.80;44.80;;;;;;10467760;28;20228;-68
2022/12/24 20:12:07;;;;;;;5.27;4.17;;;12.70;44.80;;;;;;10471440;28;20297;-68
2022/12/24 20:17:10;;;;;;;4.90;3.60;;;12.70;45.00;;;;;;10465560;28;20716;-68
2022/12/24 20:22:15;;;;;;;3.97;3.33;;;12.70;45.00;;;;;;10470813;28;20227;-68
2022/12/24 20:27:18;;;;;;;5.53;4.13;;;12.70;45.00;;;;;;10465091;28;20221;-68
2022/12/24 20:32:22;;;;;;;6.60;5.10;;;12.70;44.90;;;;;;10473669;28;20232;-68
2022/12/24 20:37:27;;;;;;;17.20;13.37;;;12.70;45.00;;;;;;10471358;28;20240;-68
2022/12/24 20:42:30;;;;;;;13.93;11.30;;;12.70;44.80;;;;;;10468855;28;20360;-68
2022/12/24 20:47:33;;;;;;;18.43;13.67;;;12.70;45.00;;;;;;10468152;28;20232;-68
2022/12/24 20:52:38;;;;;;;13.20;10.10;;;12.70;45.00;;;;;;10471170;28;20585;-68
2022/12/24 20:57:41;;;;;;;9.97;8.40;;;12.60;44.90;;;;;;10475873;28;20224;-68
2022/12/24 21:02:44;;;;;;;8.50;6.50;;;12.60;45.10;;;;;;10467295;28;20251;-68
2022/12/24 21:07:48;;;;;;;6.80;5.67;;;12.60;45.10;;;;;;10467794;28;20224;-68
2022/12/24 21:12:55;;;;;;;4.87;4.37;;;12.60;45.00;;;;;;10467594;28;20224;-68
2022/12/24 21:17:59;;;;;;;6.10;4.63;;;12.60;45.10;;;;;;10469623;28;20281;-68
2022/12/24 21:23:04;;;;;;;7.07;4.30;;;12.60;45.00;;;;;;10476180;28;20224;-69
2022/12/24 21:28:08;;;;;;;7.03;4.33;;;12.50;45.00;;;;;;10465987;28;20220;-68
2022/12/24 21:33:11;;;;;;;5.00;4.30;;;12.50;45.10;;;;;;10474737;28;20232;-68
2022/12/24 21:38:16;;;;;;;5.60;4.30;;;12.50;45.20;;;;;;10468923;28;20674;-68
2022/12/24 21:43:19;;;;;;;4.53;4.13;;;12.50;45.10;;;;;;10465422;28;20628;-68
2022/12/24 21:59:04;;;;;;;7.60;5.00;;;12.60;45.20;;;;;;10472823;28;20684;-68
2022/12/24 22:04:07;;;;;;;5.57;4.57;;;12.60;45.20;;;;;;10475807;28;20228;-68
2022/12/24 22:14:32;;;;;;;7.17;5.03;;;12.60;45.30;;;;;;10476425;28;20282;-68
2022/12/24 22:19:36;;;;;;;6.33;5.70;;;12.50;45.10;;;;;;10458693;28;20239;-68
2022/12/24 22:24:40;;;;;;;5.83;5.20;;;12.50;45.20;;;;;;10467367;28;20575;-68
2022/12/24 22:29:43;;;;;;;7.37;6.13;;;12.50;45.30;;;;;;10465737;28;20232;-68
2022/12/24 22:34:48;;;;;;;7.03;6.07;;;12.50;45.30;;;;;;10464532;28;20315;-68
2022/12/24 22:39:52;;;;;;;9.17;6.70;;;12.50;45.30;;;;;;10459777;28;20237;-68
2022/12/24 22:44:55;;;;;;;9.37;7.33;;;12.50;45.20;;;;;;10460635;28;20236;-68
2022/12/24 22:49:58;;;;;;;7.90;7.20;;;12.50;45.30;;;;;;10461877;28;20239;-68
2022/12/24 22:55:04;;;;;;;7.53;6.67;;;12.50;45.20;;;;;;10464013;28;20885;-72
2022/12/24 23:00:12;;;;;;;6.50;5.90;;;12.50;45.10;;;;;;10457787;28;20224;-68
2022/12/24 23:05:15;;;;;;;8.87;6.40;;;12.40;44.90;;;;;;10460589;28;20259;-68
2022/12/24 23:10:19;;;;;;;11.57;8.70;;;12.30;44.90;;;;;;10465167;28;20232;-68
2022/12/24 23:15:22;;;;;;;7.90;7.13;;;12.20;45.00;;;;;;10459709;28;20235;-68
2022/12/24 23:20:26;;;;;;;5.67;4.80;;;12.10;45.20;;;;;;10456685;28;20284;-68
2022/12/24 23:25:30;;;;;;;5.53;4.70;;;12.00;45.30;;;;;;10461384;28;20240;-68
2022/12/24 23:30:33;;;;;;;4.80;4.30;;;11.90;45.50;;;;;;10458833;28;20243;-68
2022/12/24 23:35:36;;;;;;;4.87;4.20;;;11.80;45.60;;;;;;10461919;28;20220;-68
2022/12/24 23:40:42;;;;;;;5.40;3.93;;;11.80;45.70;;;;;;10460199;28;20643;-68
2022/12/24 23:45:50;;;;;;;5.17;4.50;;;11.90;46.00;;;;;;10459611;28;20614;-68
2022/12/24 23:51:04;;;;;;;5.50;4.30;;;11.90;45.90;;;;;;10459482;28;20229;-68
2022/12/24 23:56:10;;;;;;;5.10;4.03;;;11.90;45.70;;;;;;10455282;28;20220;-68
